createdAt,value
2019-02-17T00:00:13.517Z,80.09
2019-02-17T00:01:13.507Z,80.93
2019-02-17T00:02:13.507Z,80.82
2019-02-17T00:03:13.486Z,81.35
2019-02-17T00:04:13.475Z,80.82
2019-02-17T00:05:13.475Z,81.24
2019-02-17T00:06:13.455Z,80.62
2019-02-17T00:07:13.453Z,81.66
2019-02-17T00:08:13.434Z,81.35
2019-02-17T00:09:13.421Z,81.45
2019-02-17T00:10:13.412Z,81.13
2019-02-17T00:11:13.400Z,81.35
2019-02-17T00:12:13.398Z,80.93
2019-02-17T00:13:13.377Z,81.03
2019-02-17T00:14:13.368Z,81.59
2019-02-17T00:15:13.358Z,81.13
2019-02-17T00:16:13.345Z,81.07
2019-02-17T00:17:13.364Z,82.01
2019-02-17T00:18:13.331Z,81.66
2019-02-17T00:19:13.313Z,81.38
2019-02-17T00:20:13.304Z,81.49
2019-02-17T00:21:13.295Z,82.22
2019-02-17T00:22:13.285Z,81.28
2019-02-17T00:23:13.283Z,81.90
2019-02-17T00:24:13.261Z,81.80
2019-02-17T00:25:13.250Z,81.28
2019-02-17T00:26:13.239Z,81.49
2019-02-17T00:27:13.228Z,81.70
2019-02-17T00:28:13.225Z,81.90
2019-02-17T00:29:13.206Z,82.12
2019-02-17T00:30:13.199Z,82.22
2019-02-17T00:31:13.184Z,82.32
2019-02-17T00:32:13.174Z,82.01
2019-02-17T00:33:13.173Z,82.36
2019-02-17T00:34:13.802Z,82.32
2019-02-17T00:35:13.150Z,82.26
2019-02-17T00:36:13.132Z,82.36
2019-02-17T00:37:13.121Z,82.43
2019-02-17T00:38:13.118Z,82.36
2019-02-17T00:39:13.099Z,82.36
2019-02-17T00:40:13.089Z,81.90
2019-02-17T00:41:13.082Z,81.84
2019-02-17T00:42:13.067Z,82.26
2019-02-17T00:43:13.064Z,81.95
2019-02-17T00:44:13.046Z,81.42
2019-02-17T00:45:13.034Z,82.57
2019-02-17T00:46:13.025Z,81.95
2019-02-17T00:47:13.017Z,82.57
2019-02-17T00:48:13.033Z,82.05
2019-02-17T00:49:12.991Z,82.36
2019-02-17T00:50:12.982Z,81.11
2019-02-17T00:51:12.971Z,81.52
2019-02-17T00:52:12.961Z,81.73
2019-02-17T00:53:12.948Z,81.63
2019-02-17T00:54:12.947Z,82.36
2019-02-17T00:55:12.927Z,82.36
2019-02-17T00:56:12.917Z,81.32
2019-02-17T00:57:12.906Z,81.42
2019-02-17T00:58:12.898Z,81.63
2019-02-17T00:59:12.895Z,81.21
2019-02-17T01:00:12.874Z,81.42
2019-02-17T01:01:12.867Z,81.32
2019-02-17T01:02:12.855Z,82.05
2019-02-17T01:03:12.844Z,81.63
2019-02-17T01:04:12.845Z,81.52
2019-02-17T01:05:12.822Z,81.67
2019-02-17T01:06:12.812Z,81.77
2019-02-17T01:07:12.802Z,82.15
2019-02-17T01:08:12.791Z,81.46
2019-02-17T01:09:12.793Z,81.46
2019-02-17T01:10:12.774Z,82.50
2019-02-17T01:11:12.758Z,82.92
2019-02-17T01:12:12.747Z,82.29
2019-02-17T01:13:12.739Z,82.36
2019-02-17T01:14:12.734Z,82.60
2019-02-17T01:15:12.728Z,81.98
2019-02-17T01:16:12.708Z,83.34
2019-02-17T01:17:12.693Z,83.13
2019-02-17T01:18:12.683Z,83.13
2019-02-17T01:19:12.679Z,83.34
2019-02-17T01:20:12.662Z,83.13
2019-02-17T01:21:12.659Z,83.13
2019-02-17T01:22:12.642Z,82.40
2019-02-17T01:23:12.630Z,82.12
2019-02-17T01:24:12.626Z,83.13
2019-02-17T01:25:12.606Z,83.03
2019-02-17T01:26:12.604Z,83.27
2019-02-17T01:27:12.585Z,83.17
2019-02-17T01:28:12.576Z,83.03
2019-02-17T01:29:20.086Z,83.17
2019-02-17T01:30:13.555Z,83.44
2019-02-17T01:31:12.544Z,83.44
2019-02-17T01:32:12.532Z,83.38
2019-02-17T01:33:12.521Z,83.55
2019-02-17T01:34:12.523Z,83.06
2019-02-17T01:35:12.500Z,83.48
2019-02-17T01:36:12.490Z,83.80
2019-02-17T01:37:12.478Z,83.69
2019-02-17T01:38:12.468Z,83.59
2019-02-17T01:39:12.470Z,83.69
2019-02-17T01:40:12.447Z,83.59
2019-02-17T01:41:12.436Z,83.59
2019-02-17T01:42:12.427Z,83.59
2019-02-17T01:43:12.416Z,83.59
2019-02-17T01:44:12.420Z,83.27
2019-02-17T01:45:12.399Z,83.69
2019-02-17T01:46:12.383Z,83.59
2019-02-17T01:47:12.372Z,83.80
2019-02-17T01:48:12.362Z,83.80
2019-02-17T01:49:12.383Z,83.59
2019-02-17T01:50:12.340Z,83.52
2019-02-17T01:51:12.337Z,83.62
2019-02-17T01:52:12.319Z,83.10
2019-02-17T01:53:12.309Z,83.38
2019-02-17T01:54:12.303Z,83.62
2019-02-17T01:55:12.295Z,83.83
2019-02-17T01:56:12.280Z,83.52
2019-02-17T01:57:12.286Z,83.27
2019-02-17T01:58:12.256Z,83.17
2019-02-17T01:59:12.245Z,83.42
2019-02-17T02:00:12.242Z,83.00
2019-02-17T02:01:12.226Z,83.21
2019-02-17T02:02:12.217Z,83.10
2019-02-17T02:03:12.287Z,83.21
2019-02-17T02:04:12.193Z,83.10
2019-02-17T02:05:12.190Z,83.42
2019-02-17T02:06:12.170Z,83.21
2019-02-17T02:07:12.171Z,83.35
2019-02-17T02:08:12.149Z,83.62
2019-02-17T02:09:12.142Z,83.66
2019-02-17T02:10:12.136Z,83.87
2019-02-17T02:11:12.117Z,83.87
2019-02-17T02:12:12.106Z,83.87
2019-02-17T02:13:12.096Z,83.56
2019-02-17T02:14:12.085Z,83.98
2019-02-17T02:15:12.090Z,83.87
2019-02-17T02:16:12.063Z,84.39
2019-02-17T02:17:12.054Z,84.50
2019-02-17T02:18:12.042Z,84.08
2019-02-17T02:19:12.033Z,84.19
2019-02-17T02:20:12.033Z,84.81
2019-02-17T02:21:12.009Z,84.61
2019-02-17T02:22:12.002Z,84.92
2019-02-17T02:23:11.992Z,84.92
2019-02-17T02:24:11.978Z,85.75
2019-02-17T02:25:11.981Z,85.97
2019-02-17T02:26:11.962Z,85.86
2019-02-17T02:27:11.951Z,85.75
2019-02-17T02:28:11.936Z,85.44
2019-02-17T02:29:11.925Z,85.55
2019-02-17T02:30:11.924Z,85.75
2019-02-17T02:31:11.912Z,85.97
2019-02-17T02:32:11.895Z,86.07
2019-02-17T02:33:11.892Z,85.69
2019-02-17T02:34:11.872Z,85.55
2019-02-17T02:35:11.873Z,85.55
2019-02-17T02:36:11.851Z,85.65
2019-02-17T02:37:11.845Z,85.97
2019-02-17T02:38:13.539Z,86.11
2019-02-17T02:39:11.821Z,86.28
2019-02-17T02:40:11.941Z,85.59
2019-02-17T02:41:11.800Z,85.34
2019-02-17T02:42:11.789Z,85.34
2019-02-17T02:43:11.781Z,85.80
2019-02-17T02:44:11.768Z,85.69
2019-02-17T02:45:11.761Z,85.69
2019-02-17T02:46:11.759Z,85.55
2019-02-17T02:47:11.737Z,85.55
2019-02-17T02:48:11.726Z,85.44
2019-02-17T02:49:11.720Z,85.59
2019-02-17T02:50:11.703Z,85.38
2019-02-17T02:51:11.703Z,85.48
2019-02-17T02:52:11.682Z,85.38
2019-02-17T02:53:11.673Z,84.96
2019-02-17T02:54:11.668Z,85.69
2019-02-17T02:55:11.650Z,85.48
2019-02-17T02:56:11.652Z,85.52
2019-02-17T02:57:11.630Z,85.80
2019-02-17T02:58:11.619Z,85.80
2019-02-17T02:59:11.610Z,85.69
2019-02-17T03:00:11.637Z,84.75
2019-02-17T03:01:11.598Z,84.96
2019-02-17T03:02:11.581Z,84.96
2019-02-17T03:03:11.576Z,84.85
2019-02-17T03:04:11.557Z,84.75
2019-02-17T03:05:11.550Z,84.85
2019-02-17T03:06:11.551Z,84.96
2019-02-17T03:07:11.526Z,86.00
2019-02-17T03:08:11.513Z,85.94
2019-02-17T03:09:11.512Z,85.90
2019-02-17T03:10:11.493Z,85.27
2019-02-17T03:11:11.494Z,85.63
2019-02-17T03:12:11.472Z,84.85
2019-02-17T03:13:11.461Z,85.10
2019-02-17T03:14:11.455Z,85.06
2019-02-17T03:15:11.440Z,85.06
2019-02-17T03:16:11.437Z,85.59
2019-02-17T03:17:11.420Z,85.31
2019-02-17T03:18:11.409Z,85.10
2019-02-17T03:19:11.399Z,85.94
2019-02-17T03:20:11.387Z,85.52
2019-02-17T03:21:11.386Z,85.59
2019-02-17T03:22:11.366Z,85.48
2019-02-17T03:23:11.355Z,85.52
2019-02-17T03:24:11.345Z,85.31
2019-02-17T03:25:11.338Z,85.94
2019-02-17T03:26:11.334Z,85.83
2019-02-17T03:27:11.314Z,85.42
2019-02-17T03:28:11.304Z,86.05
2019-02-17T03:29:11.292Z,85.63
2019-02-17T03:30:11.285Z,86.51
2019-02-17T03:31:11.294Z,86.36
2019-02-17T03:32:11.262Z,86.57
2019-02-17T03:33:11.251Z,86.57
2019-02-17T03:34:11.243Z,86.36
2019-02-17T03:35:11.234Z,85.73
2019-02-17T03:36:11.227Z,85.63
2019-02-17T03:37:11.217Z,85.73
2019-02-17T03:38:11.200Z,85.94
2019-02-17T03:39:11.188Z,85.52
2019-02-17T03:40:11.177Z,85.63
2019-02-17T03:41:11.178Z,85.52
2019-02-17T03:42:11.185Z,85.52
2019-02-17T03:43:11.150Z,85.42
2019-02-17T03:44:11.136Z,85.42
2019-02-17T03:45:11.125Z,85.42
2019-02-17T03:46:11.121Z,85.63
2019-02-17T03:47:11.112Z,85.63
2019-02-17T03:48:11.093Z,85.63
2019-02-17T03:49:11.080Z,84.89
2019-02-17T03:50:11.071Z,85.83
2019-02-17T03:51:11.069Z,85.94
2019-02-17T03:52:11.051Z,84.89
2019-02-17T03:53:11.045Z,84.47
2019-02-17T03:54:11.033Z,84.79
2019-02-17T03:55:11.024Z,84.16
2019-02-17T03:56:11.018Z,85.00
2019-02-17T03:57:11.004Z,84.79
2019-02-17T03:58:10.997Z,84.68
2019-02-17T03:59:10.978Z,85.00
2019-02-17T04:00:17.046Z,85.83
2019-02-17T04:01:11.954Z,85.56
2019-02-17T04:02:10.952Z,85.63
2019-02-17T04:03:10.938Z,85.73
2019-02-17T04:04:10.928Z,85.52
2019-02-17T04:05:10.914Z,85.52
2019-02-17T04:06:10.902Z,86.15
2019-02-17T04:07:10.904Z,85.94
2019-02-17T04:08:10.881Z,86.36
2019-02-17T04:09:10.873Z,86.08
2019-02-17T04:10:10.860Z,86.05
2019-02-17T04:11:10.849Z,86.05
2019-02-17T04:12:10.851Z,86.61
2019-02-17T04:13:10.831Z,87.83
2019-02-17T04:14:10.820Z,87.62
2019-02-17T04:15:10.808Z,86.88
2019-02-17T04:16:10.797Z,86.88
2019-02-17T04:17:10.799Z,85.94
2019-02-17T04:18:10.779Z,85.94
2019-02-17T04:19:10.767Z,85.52
2019-02-17T04:20:10.753Z,85.52
2019-02-17T04:21:10.744Z,85.83
2019-02-17T04:22:10.744Z,85.52
2019-02-17T04:23:10.724Z,85.73
2019-02-17T04:24:10.716Z,85.77
2019-02-17T04:25:10.711Z,85.83
2019-02-17T04:26:10.690Z,85.73
2019-02-17T04:27:10.689Z,85.77
2019-02-17T04:28:10.688Z,85.77
2019-02-17T04:29:10.663Z,85.52
2019-02-17T04:30:10.648Z,85.56
2019-02-17T04:31:10.639Z,85.63
2019-02-17T04:32:10.635Z,85.46
2019-02-17T04:33:10.617Z,85.46
2019-02-17T04:34:10.614Z,85.66
2019-02-17T04:35:10.595Z,85.88
2019-02-17T04:36:10.585Z,85.46
2019-02-17T04:37:10.586Z,85.56
2019-02-17T04:38:10.565Z,85.66
2019-02-17T04:39:10.630Z,85.46
2019-02-17T04:40:10.543Z,85.56
2019-02-17T04:41:10.532Z,86.51
2019-02-17T04:42:10.534Z,87.03
2019-02-17T04:43:10.510Z,86.51
2019-02-17T04:44:10.501Z,86.51
2019-02-17T04:45:10.491Z,86.71
2019-02-17T04:46:10.478Z,85.98
2019-02-17T04:47:10.480Z,86.23
2019-02-17T04:48:10.462Z,87.17
2019-02-17T04:49:10.448Z,88.22
2019-02-17T04:50:10.439Z,88.64
2019-02-17T04:51:10.427Z,88.01
2019-02-17T04:52:10.425Z,87.91
2019-02-17T04:53:10.406Z,87.28
2019-02-17T04:54:10.395Z,86.92
2019-02-17T04:55:10.384Z,86.40
2019-02-17T04:56:10.373Z,87.13
2019-02-17T04:57:10.380Z,87.17
2019-02-17T04:58:10.357Z,86.61
2019-02-17T04:59:10.349Z,86.51
2019-02-17T05:00:10.331Z,86.65
2019-02-17T05:01:10.324Z,86.44
2019-02-17T05:02:10.321Z,86.92
2019-02-17T05:03:10.300Z,87.17
2019-02-17T05:04:10.289Z,87.13
2019-02-17T05:05:10.282Z,87.34
2019-02-17T05:06:10.358Z,87.34
2019-02-17T05:07:10.267Z,86.82
2019-02-17T05:08:10.246Z,86.71
2019-02-17T05:09:10.239Z,87.24
2019-02-17T05:10:10.228Z,86.71
2019-02-17T05:11:10.220Z,86.82
2019-02-17T05:12:10.230Z,86.92
2019-02-17T05:13:10.196Z,87.13
2019-02-17T05:14:10.182Z,87.07
2019-02-17T05:15:10.174Z,86.51
2019-02-17T05:16:10.164Z,87.03
2019-02-17T05:17:10.155Z,86.92
2019-02-17T05:18:10.151Z,86.40
2019-02-17T05:19:10.136Z,87.34
2019-02-17T05:20:10.124Z,86.92
2019-02-17T05:21:10.116Z,86.08
2019-02-17T05:22:10.214Z,87.03
2019-02-17T05:23:10.099Z,86.61
2019-02-17T05:24:10.078Z,86.51
2019-02-17T05:25:10.072Z,86.08
2019-02-17T05:26:10.057Z,85.88
2019-02-17T05:27:10.048Z,86.33
2019-02-17T05:28:10.045Z,86.08
2019-02-17T05:29:10.026Z,86.61
2019-02-17T05:30:10.024Z,86.29
2019-02-17T05:31:10.018Z,86.33
2019-02-17T05:32:09.993Z,85.91
2019-02-17T05:33:09.991Z,86.02
2019-02-17T05:34:09.972Z,86.54
2019-02-17T05:35:09.963Z,86.44
2019-02-17T05:36:10.060Z,85.74
2019-02-17T05:37:09.940Z,86.76
2019-02-17T05:38:09.941Z,86.76
2019-02-17T05:39:09.920Z,87.28
2019-02-17T05:40:09.912Z,86.86
2019-02-17T05:41:09.900Z,87.07
2019-02-17T05:42:09.886Z,86.44
2019-02-17T05:43:09.886Z,86.76
2019-02-17T05:44:09.866Z,87.28
2019-02-17T05:45:09.857Z,87.17
2019-02-17T05:46:09.846Z,86.76
2019-02-17T05:47:09.835Z,86.86
2019-02-17T05:48:09.930Z,86.44
2019-02-17T05:49:09.812Z,86.02
2019-02-17T05:50:09.814Z,85.81
2019-02-17T05:51:09.793Z,86.02
2019-02-17T05:52:09.786Z,87.07
2019-02-17T05:53:09.779Z,86.71
2019-02-17T05:54:09.759Z,87.07
2019-02-17T05:55:09.749Z,86.54
2019-02-17T05:56:09.742Z,86.44
2019-02-17T05:57:09.732Z,86.61
2019-02-17T05:58:09.728Z,87.28
2019-02-17T05:59:09.707Z,87.07
2019-02-17T06:00:09.696Z,87.07
2019-02-17T06:01:09.687Z,86.90
2019-02-17T06:02:09.678Z,87.70
2019-02-17T06:03:09.672Z,87.70
2019-02-17T06:04:09.653Z,87.59
2019-02-17T06:05:09.651Z,87.49
2019-02-17T06:06:09.633Z,87.17
2019-02-17T06:07:09.660Z,86.86
2019-02-17T06:08:09.620Z,87.17
2019-02-17T06:09:09.601Z,86.02
2019-02-17T06:10:09.590Z,86.16
2019-02-17T06:11:09.670Z,87.49
2019-02-17T06:12:09.570Z,87.32
2019-02-17T06:13:09.569Z,87.74
2019-02-17T06:14:09.550Z,87.80
2019-02-17T06:15:09.568Z,87.28
2019-02-17T06:16:09.541Z,87.00
2019-02-17T06:17:09.517Z,87.17
2019-02-17T06:18:09.515Z,86.44
2019-02-17T06:19:09.496Z,86.16
2019-02-17T06:20:09.486Z,86.02
2019-02-17T06:21:09.481Z,85.91
2019-02-17T06:22:09.465Z,86.23
2019-02-17T06:23:09.462Z,86.23
2019-02-17T06:24:09.444Z,85.98
2019-02-17T06:25:09.432Z,86.19
2019-02-17T06:26:09.422Z,85.88
2019-02-17T06:27:09.413Z,86.71
2019-02-17T06:28:09.415Z,86.86
2019-02-17T06:29:09.391Z,86.51
2019-02-17T06:30:09.380Z,86.61
2019-02-17T06:31:14.330Z,87.17
2019-02-17T06:32:10.355Z,86.61
2019-02-17T06:33:09.371Z,86.71
2019-02-17T06:34:09.337Z,86.92
2019-02-17T06:35:09.326Z,86.71
2019-02-17T06:36:09.317Z,85.98
2019-02-17T06:37:09.305Z,88.18
2019-02-17T06:38:09.297Z,88.92
2019-02-17T06:39:09.293Z,89.02
2019-02-17T06:40:09.278Z,88.71
2019-02-17T06:41:09.263Z,88.49
2019-02-17T06:42:09.252Z,87.87
2019-02-17T06:43:09.242Z,87.03
2019-02-17T06:44:09.239Z,86.92
2019-02-17T06:45:09.222Z,86.92
2019-02-17T06:46:09.209Z,88.39
2019-02-17T06:47:09.198Z,88.81
2019-02-17T06:48:09.196Z,89.44
2019-02-17T06:49:09.187Z,89.97
2019-02-17T06:50:09.168Z,89.02
2019-02-17T06:51:09.157Z,88.71
2019-02-17T06:52:09.145Z,88.60
2019-02-17T06:53:09.135Z,88.87
2019-02-17T06:54:09.136Z,88.35
2019-02-17T06:55:09.116Z,88.24
2019-02-17T06:56:09.213Z,87.83
2019-02-17T06:57:09.096Z,87.62
2019-02-17T06:58:09.082Z,87.79
2019-02-17T06:59:09.082Z,87.58
2019-02-17T07:00:09.069Z,87.68
2019-02-17T07:01:09.051Z,88.21
2019-02-17T07:02:09.041Z,88.94
2019-02-17T07:03:09.031Z,88.21
2019-02-17T07:04:09.030Z,88.27
2019-02-17T07:05:09.014Z,87.33
2019-02-17T07:06:09.004Z,87.01
2019-02-17T07:07:08.989Z,86.91
2019-02-17T07:08:08.997Z,86.91
2019-02-17T07:09:08.977Z,86.80
2019-02-17T07:10:08.959Z,86.45
2019-02-17T07:11:08.946Z,85.82
2019-02-17T07:12:08.936Z,85.82
2019-02-17T07:13:08.925Z,85.30
2019-02-17T07:14:08.924Z,85.68
2019-02-17T07:15:08.904Z,85.89
2019-02-17T07:16:08.977Z,85.26
2019-02-17T07:17:08.883Z,85.36
2019-02-17T07:18:08.873Z,85.47
2019-02-17T07:19:08.875Z,85.36
2019-02-17T07:20:09.739Z,85.33
2019-02-17T07:21:08.841Z,85.33
2019-02-17T07:22:08.831Z,85.22
2019-02-17T07:23:08.822Z,84.70
2019-02-17T07:24:08.817Z,84.70
2019-02-17T07:25:08.800Z,85.33
2019-02-17T07:26:08.791Z,85.74
2019-02-17T07:27:08.776Z,85.91
2019-02-17T07:28:08.766Z,85.81
2019-02-17T07:29:08.764Z,86.02
2019-02-17T07:30:08.745Z,85.91
2019-02-17T07:31:08.735Z,85.71
2019-02-17T07:32:08.725Z,86.23
2019-02-17T07:33:08.712Z,85.88
2019-02-17T07:34:08.712Z,85.25
2019-02-17T07:35:08.704Z,85.31
2019-02-17T07:36:08.684Z,85.31
2019-02-17T07:37:08.669Z,85.31
2019-02-17T07:38:08.660Z,85.21
2019-02-17T07:39:08.660Z,85.17
2019-02-17T07:40:08.638Z,84.55
2019-02-17T07:41:08.627Z,83.78
2019-02-17T07:42:09.618Z,83.67
2019-02-17T07:43:08.604Z,83.25
2019-02-17T07:44:08.617Z,83.88
2019-02-17T07:45:08.583Z,84.16
2019-02-17T07:46:08.572Z,83.78
2019-02-17T07:47:08.562Z,83.22
2019-02-17T07:48:08.550Z,83.28
2019-02-17T07:49:08.542Z,82.93
2019-02-17T07:50:08.539Z,81.99
2019-02-17T07:51:08.520Z,81.16
2019-02-17T07:52:08.512Z,81.05
2019-02-17T07:53:08.499Z,81.68
2019-02-17T07:54:08.489Z,81.26
2019-02-17T07:55:08.487Z,81.26
2019-02-17T07:56:08.465Z,81.79
2019-02-17T07:57:08.454Z,82.20
2019-02-17T07:58:08.447Z,82.62
2019-02-17T07:59:08.435Z,82.79
2019-02-17T08:00:08.440Z,82.89
2019-02-17T08:01:08.412Z,82.72
2019-02-17T08:02:08.403Z,82.89
2019-02-17T08:03:08.391Z,82.79
2019-02-17T08:04:08.381Z,82.89
2019-02-17T08:05:08.386Z,82.75
2019-02-17T08:06:08.360Z,82.96
2019-02-17T08:07:08.348Z,82.75
2019-02-17T08:08:08.337Z,82.40
2019-02-17T08:09:08.327Z,81.98
2019-02-17T08:10:08.326Z,81.63
2019-02-17T08:11:08.306Z,81.22
2019-02-17T08:12:08.300Z,80.77
2019-02-17T08:13:08.284Z,81.08
2019-02-17T08:14:08.274Z,81.29
2019-02-17T08:15:08.272Z,81.49
2019-02-17T08:16:08.252Z,81.60
2019-02-17T08:17:08.241Z,81.87
2019-02-17T08:18:08.233Z,81.77
2019-02-17T08:19:08.222Z,81.56
2019-02-17T08:20:08.246Z,81.15
2019-02-17T08:21:08.201Z,81.52
2019-02-17T08:22:08.194Z,81.52
2019-02-17T08:23:08.176Z,81.01
2019-02-17T08:24:08.169Z,80.87
2019-02-17T08:25:08.162Z,80.55
2019-02-17T08:26:08.147Z,80.62
2019-02-17T08:27:08.211Z,81.59
2019-02-17T08:28:08.123Z,80.93
2019-02-17T08:29:08.114Z,80.37
2019-02-17T08:30:08.132Z,79.85
2019-02-17T08:31:08.089Z,79.41
2019-02-17T08:32:08.079Z,79.55
2019-02-17T08:33:08.069Z,78.37
2019-02-17T08:34:08.060Z,78.16
2019-02-17T08:35:08.055Z,78.37
2019-02-17T08:36:08.036Z,77.92
2019-02-17T08:37:08.025Z,77.29
2019-02-17T08:38:08.015Z,77.36
2019-02-17T08:39:08.003Z,76.91
2019-02-17T08:40:08.002Z,76.19
2019-02-17T08:41:07.985Z,75.36
2019-02-17T08:42:07.972Z,75.95
2019-02-17T08:43:07.962Z,75.53
2019-02-17T08:44:07.960Z,74.88
2019-02-17T08:45:07.950Z,73.84
2019-02-17T08:46:07.929Z,73.29
2019-02-17T08:47:07.917Z,71.71
2019-02-17T08:48:07.906Z,71.44
2019-02-17T08:49:07.896Z,69.75
2019-02-17T08:50:07.895Z,68.90
2019-02-17T08:51:07.874Z,66.67
2019-02-17T08:52:07.864Z,66.64
2019-02-17T08:53:07.855Z,66.74
2019-02-17T08:54:07.842Z,64.86
2019-02-17T08:55:07.841Z,64.65
2019-02-17T08:56:07.821Z,64.65
2019-02-17T08:57:07.810Z,64.31
2019-02-17T08:58:07.802Z,64.83
2019-02-17T08:59:07.793Z,63.21
2019-02-17T09:00:07.787Z,63.65
2019-02-17T09:01:07.767Z,63.62
2019-02-17T09:02:07.758Z,62.79
2019-02-17T09:03:07.749Z,63.62
2019-02-17T09:04:07.734Z,63.62
2019-02-17T09:05:07.734Z,64.00
2019-02-17T09:06:07.713Z,63.69
2019-02-17T09:07:07.702Z,64.07
2019-02-17T09:08:07.690Z,64.21
2019-02-17T09:09:07.680Z,63.76
2019-02-17T09:10:07.678Z,63.25
2019-02-17T09:11:07.658Z,63.76
2019-02-17T09:12:07.648Z,64.18
2019-02-17T09:13:07.637Z,62.95
2019-02-17T09:14:07.626Z,64.07
2019-02-17T09:15:07.627Z,63.56
2019-02-17T09:16:07.604Z,63.87
2019-02-17T09:17:07.594Z,64.07
2019-02-17T09:18:07.587Z,63.35
2019-02-17T09:19:07.571Z,63.74
2019-02-17T09:20:08.069Z,64.66
2019-02-17T09:21:07.560Z,63.22
2019-02-17T09:22:07.548Z,63.02
2019-02-17T09:23:07.529Z,62.53
2019-02-17T09:24:07.519Z,63.67
2019-02-17T09:25:07.509Z,63.05
2019-02-17T09:26:07.508Z,62.95
2019-02-17T09:27:07.489Z,63.05
2019-02-17T09:28:07.485Z,63.87
2019-02-17T09:29:07.466Z,63.25
2019-02-17T09:30:07.455Z,64.39
2019-02-17T09:31:07.453Z,63.87
2019-02-17T09:32:16.141Z,63.56
2019-02-17T09:33:08.422Z,64.48
2019-02-17T09:34:07.413Z,63.56
2019-02-17T09:35:07.402Z,63.12
2019-02-17T09:36:07.398Z,62.09
2019-02-17T09:37:07.382Z,61.37
2019-02-17T09:38:07.368Z,62.60
2019-02-17T09:39:07.359Z,63.02
2019-02-17T09:40:07.355Z,63.02
2019-02-17T09:41:07.349Z,61.65
2019-02-17T09:42:07.326Z,62.58
2019-02-17T09:43:07.315Z,62.04
2019-02-17T09:44:07.305Z,62.14
2019-02-17T09:45:07.294Z,62.88
2019-02-17T09:46:07.297Z,62.75
2019-02-17T09:47:07.279Z,61.11
2019-02-17T09:48:07.262Z,62.55
2019-02-17T09:49:07.254Z,63.57
2019-02-17T09:50:07.241Z,63.44
2019-02-17T09:51:07.244Z,64.26
2019-02-17T09:52:07.219Z,63.65
2019-02-17T09:53:07.214Z,63.44
2019-02-17T09:54:07.199Z,64.06
2019-02-17T09:55:07.188Z,64.26
2019-02-17T09:56:07.186Z,63.65
2019-02-17T09:57:07.169Z,63.72
2019-02-17T09:58:07.155Z,63.00
2019-02-17T09:59:07.144Z,62.39
2019-02-17T10:00:07.138Z,62.70
2019-02-17T10:01:07.139Z,62.36
2019-02-17T10:02:07.114Z,60.72
2019-02-17T10:03:07.107Z,61.33
2019-02-17T10:04:07.092Z,61.85
2019-02-17T10:05:07.082Z,62.46
2019-02-17T10:06:07.079Z,62.15
2019-02-17T10:07:07.065Z,62.05
2019-02-17T10:08:07.052Z,61.30
2019-02-17T10:09:07.038Z,61.30
2019-02-17T10:10:07.029Z,61.51
2019-02-17T10:11:07.026Z,61.51
2019-02-17T10:12:07.008Z,61.38
2019-02-17T10:13:07.006Z,61.38
2019-02-17T10:14:06.986Z,59.74
2019-02-17T10:15:06.973Z,58.10
2019-02-17T10:16:06.993Z,58.00
2019-02-17T10:17:06.953Z,60.05
2019-02-17T10:18:06.942Z,60.02
2019-02-17T10:19:06.931Z,61.25
2019-02-17T10:20:06.925Z,60.53
2019-02-17T10:21:06.914Z,60.22
2019-02-17T10:22:06.909Z,60.22
2019-02-17T10:23:06.889Z,60.42
2019-02-17T10:24:06.877Z,61.04
2019-02-17T10:25:06.867Z,61.45
2019-02-17T10:26:06.857Z,60.94
2019-02-17T10:27:06.852Z,59.50
2019-02-17T10:28:06.833Z,58.07
2019-02-17T10:29:06.821Z,58.07
2019-02-17T10:30:06.811Z,58.48
2019-02-17T10:31:06.801Z,57.94
2019-02-17T10:32:06.797Z,58.45
2019-02-17T10:33:06.778Z,59.14
2019-02-17T10:34:06.765Z,59.25
2019-02-17T10:35:06.756Z,59.35
2019-02-17T10:36:06.748Z,58.73
2019-02-17T10:37:06.741Z,58.53
2019-02-17T10:38:06.722Z,59.55
2019-02-17T10:39:06.710Z,57.81
2019-02-17T10:40:06.700Z,58.02
2019-02-17T10:41:06.690Z,57.68
2019-02-17T10:42:06.687Z,57.48
2019-02-17T10:43:06.667Z,57.58
2019-02-17T10:44:06.655Z,56.56
2019-02-17T10:45:06.644Z,55.43
2019-02-17T10:46:06.635Z,55.33
2019-02-17T10:47:06.631Z,54.82
2019-02-17T10:48:06.610Z,54.61
2019-02-17T10:49:06.602Z,55.23
2019-02-17T10:50:06.588Z,55.33
2019-02-17T10:51:06.579Z,54.28
2019-02-17T10:52:06.575Z,53.80
2019-02-17T10:53:06.557Z,53.49
2019-02-17T10:54:06.544Z,53.57
2019-02-17T10:55:06.533Z,54.10
2019-02-17T10:56:06.521Z,54.59
2019-02-17T10:57:06.520Z,55.00
2019-02-17T10:58:06.500Z,54.69
2019-02-17T10:59:06.489Z,54.90
2019-02-17T11:00:06.477Z,55.28
2019-02-17T11:01:06.467Z,57.02
2019-02-17T11:02:06.464Z,56.40
2019-02-17T11:03:06.446Z,57.56
2019-02-17T11:04:06.434Z,57.84
2019-02-17T11:05:06.423Z,57.53
2019-02-17T11:06:06.413Z,57.76
2019-02-17T11:07:06.410Z,57.45
2019-02-17T11:08:06.390Z,57.63
2019-02-17T11:09:06.379Z,58.04
2019-02-17T11:10:06.367Z,58.14
2019-02-17T11:11:06.358Z,58.04
2019-02-17T11:12:06.355Z,57.93
2019-02-17T11:13:06.335Z,57.73
2019-02-17T11:14:06.324Z,58.14
2019-02-17T11:15:06.317Z,57.73
2019-02-17T11:16:06.307Z,57.84
2019-02-17T11:17:06.301Z,57.40
2019-02-17T11:18:06.351Z,58.14
2019-02-17T11:19:06.269Z,58.75
2019-02-17T11:20:06.259Z,56.58
2019-02-17T11:21:06.250Z,52.83
2019-02-17T11:22:06.245Z,54.03
2019-02-17T11:23:06.231Z,55.97
2019-02-17T11:24:06.215Z,56.58
2019-02-17T11:25:06.205Z,55.46
2019-02-17T11:26:06.192Z,55.05
2019-02-17T11:27:06.195Z,52.88
2019-02-17T11:28:06.172Z,53.90
2019-02-17T11:29:06.162Z,52.98
2019-02-17T11:30:06.153Z,52.75
2019-02-17T11:31:06.138Z,52.86
2019-02-17T11:32:06.140Z,51.73
2019-02-17T11:33:06.117Z,53.27
2019-02-17T11:34:06.108Z,53.16
2019-02-17T11:35:06.101Z,53.36
2019-02-17T11:36:06.084Z,53.36
2019-02-17T11:37:06.106Z,53.19
2019-02-17T11:38:06.061Z,52.34
2019-02-17T11:39:06.055Z,51.73
2019-02-17T11:40:06.040Z,51.12
2019-02-17T11:41:06.029Z,52.86
2019-02-17T11:42:06.019Z,53.36
2019-02-17T11:43:06.014Z,52.86
2019-02-17T11:44:05.997Z,51.02
2019-02-17T11:45:05.986Z,52.96
2019-02-17T11:46:05.974Z,53.85
2019-02-17T11:47:07.413Z,52.62
2019-02-17T11:48:05.962Z,51.51
2019-02-17T11:49:05.942Z,51.81
2019-02-17T11:50:05.944Z,51.93
2019-02-17T11:51:05.923Z,51.53
2019-02-17T11:52:05.912Z,51.32
2019-02-17T11:53:05.907Z,50.08
2019-02-17T11:54:05.888Z,49.87
2019-02-17T11:55:05.876Z,49.29
2019-02-17T11:56:05.865Z,49.87
2019-02-17T11:57:05.856Z,49.37
2019-02-17T11:58:05.853Z,51.20
2019-02-17T11:59:05.832Z,51.07
2019-02-17T12:00:05.823Z,50.67
2019-02-17T12:01:05.813Z,51.40
2019-02-17T12:02:05.802Z,49.44
2019-02-17T12:03:08.290Z,48.96
2019-02-17T12:04:05.778Z,49.95
2019-02-17T12:05:05.767Z,50.87
2019-02-17T12:06:05.756Z,50.56
2019-02-17T12:07:05.745Z,49.04
2019-02-17T12:08:05.742Z,49.34
2019-02-17T12:09:05.723Z,49.16
2019-02-17T12:10:05.715Z,49.67
2019-02-17T12:11:05.702Z,49.04
2019-02-17T12:12:05.693Z,49.13
2019-02-17T12:13:05.694Z,48.73
2019-02-17T12:14:05.670Z,48.93
2019-02-17T12:15:05.661Z,49.44
2019-02-17T12:16:05.649Z,49.24
2019-02-17T12:17:05.640Z,50.67
2019-02-17T12:18:05.636Z,48.71
2019-02-17T12:19:05.616Z,49.93
2019-02-17T12:20:05.604Z,49.93
2019-02-17T12:21:05.597Z,51.15
2019-02-17T12:22:05.583Z,51.17
2019-02-17T12:23:05.581Z,52.58
2019-02-17T12:24:05.562Z,51.07
2019-02-17T12:25:05.550Z,52.09
2019-02-17T12:26:05.543Z,49.54
2019-02-17T12:27:05.528Z,50.26
2019-02-17T12:28:05.529Z,51.28
2019-02-17T12:29:05.509Z,50.56
2019-02-17T12:30:05.497Z,49.42
2019-02-17T12:31:05.491Z,49.52
2019-02-17T12:32:05.482Z,49.01
2019-02-17T12:33:05.477Z,49.11
2019-02-17T12:34:05.455Z,49.11
2019-02-17T12:35:05.442Z,49.70
2019-02-17T12:36:05.432Z,49.73
2019-02-17T12:37:05.420Z,48.19
2019-02-17T12:38:05.422Z,48.30
2019-02-17T12:39:05.399Z,48.38
2019-02-17T12:40:05.388Z,48.10
2019-02-17T12:41:05.377Z,48.48
2019-02-17T12:42:05.366Z,47.77
2019-02-17T12:43:05.368Z,48.27
2019-02-17T12:44:05.410Z,46.77
2019-02-17T12:45:05.333Z,48.10
2019-02-17T12:46:05.323Z,47.58
2019-02-17T12:47:05.311Z,46.87
2019-02-17T12:48:05.320Z,47.69
2019-02-17T12:49:05.292Z,46.77
2019-02-17T12:50:05.309Z,48.30
2019-02-17T12:51:05.268Z,48.30
2019-02-17T12:52:05.258Z,48.99